• Join FlightAware (Why Join?)
  • Login
  • US Flag 
05:29AM EST


 

Airport Tracker/Info


-or-


 

Live Flight TrackerFlight Track Log ✈ EJA929 ✈ 04-Aug-2013 ✈ KIWA - KCNY

Flight Track Log - Related Links

Times and Time Zones

All times are in EDT time to prevent confusion due to time zone crossing. See the EJA929 flight status page for this flight to view local times or setup timezone preferences in your user account.

Time Position Orientation Groundspeed Altitude Reporting Facility
EDT Latitude Longitude Course Direction KTS MPH feet Rate Location/Type
11:01AM 33.3000 -111.6500 138° Southeast 141 162 1,700  Level Phoenix TRACON
11:01AM 33.2811 -111.6300 138° Southeast 194 223 3,600 2,460 Climbing Albuquerque Center
11:02AM 33.2700 -111.5494 99° East 254 292 6,300 2,280 Climbing Albuquerque Center
11:03AM 33.3483 -111.5264 14° North 295 339 8,400 2,100 Climbing Albuquerque Center
11:05AM 33.4275 -111.5578 342° North 308 354 10,700 1,740 Climbing Albuquerque Center
11:06AM 33.5150 -111.6117 333° Northwest 349 402 12,000 1,440 Climbing Albuquerque Center
11:07AM 33.6103 -111.6678 334° Northwest 377 434 13,700 1,740 Climbing Albuquerque Center
11:08AM 33.7175 -111.6858 352° North 390 449 15,600 1,800 Climbing Albuquerque Center
11:09AM 33.8478 -111.7022 354° North 395 455 17,500 1,620 Climbing Albuquerque Center
11:10AM 33.9647 -111.7175 354° North 406 467 19,000 1,320 Climbing Albuquerque Center
11:11AM 34.0792 -111.7286 355° North 415 478 20,300 1,260 Climbing Albuquerque Center
11:12AM 34.2072 -111.7072 North 432 497 21,700 1,380 Climbing Albuquerque Center
11:13AM 34.3256 -111.6569 19° North 442 509 23,200 1,260 Climbing Albuquerque Center
11:14AM 34.4444 -111.6086 19° North 448 516 24,400 1,260 Climbing Albuquerque Center
11:15AM 34.5667 -111.5589 19° North 458 527 25,800 1,200 Climbing Albuquerque Center
11:16AM 34.6917 -111.5075 19° North 469 540 27,000 1,140 Climbing Albuquerque Center
11:17AM 34.8183 -111.4558 19° North 477 549 28,200 1,020 Climbing Albuquerque Center
11:18AM 34.9472 -111.4011 19° North 486 559 29,200 960 Climbing Albuquerque Center
11:19AM 35.0792 -111.3483 18° North 496 571 30,300 840 Climbing Albuquerque Center
11:20AM 35.2425 -111.2806 19° North 511 588 31,000 300 Climbing Albuquerque Center
11:21AM 35.3878 -111.2186 19° North 531 611 31,000  Level Albuquerque Center
11:22AM 35.5231 -111.1622 19° North 534 615 31,000  Level Albuquerque Center
11:23AM 35.6831 -111.0958 19° North 538 619 31,000  Level Albuquerque Center
11:24AM 35.8208 -111.0383 19° North 542 624 31,000  Level Albuquerque Center
11:25AM 35.9806 -110.9706 19° North 542 624 31,000  Level Albuquerque Center
11:26AM 36.1167 -110.9125 19° North 540 621 31,000  Level Albuquerque Center
11:27AM 36.2947 -110.8372 19° North 539 620 31,000  Level Denver Center
11:29AM 36.4669 -110.7647 19° North 545 627 31,000  Level Denver Center
11:30AM 36.6111 -110.7031 19° North 547 629 31,000  Level Denver Center
11:31AM 36.7553 -110.6406 19° North 550 633 31,000  Level Denver Center
11:32AM 36.8989 -110.5786 19° North 549 632 31,000  Level Denver Center
11:33AM 37.0711 -110.5036 19° North 548 631 31,000  Level Denver Center
11:34AM 37.2444 -110.4275 19° North 551 634 31,000  Level Denver Center
11:35AM 37.3875 -110.3653 19° North 547 629 31,000  Level Denver Center
11:36AM 37.5453 -110.2975 19° North 547 629 31,000  Level Denver Center
11:37AM 37.6836 -110.2347 20° North 550 633 31,000 -1,140 Level Denver Center
11:38AM 37.8461 -110.1644 19° North 552 635 28,700 -1,980 Descending Denver Center
11:39AM 37.9836 -110.1022 20° North 547 629 27,000 -840 Descending Denver Center
11:40AM 38.1264 -110.0389 19° North 534 615 27,000 -120 Level Denver Center
11:41AM 38.2375 -109.9897 19° North 531 611 26,800 -2,760 Descending Denver Center
11:42AM 38.3739 -109.9283 19° North 461 531 21,400 -5,700 Descending Denver Center
11:43AM 38.5122 -109.8686 19° North 423 487 14,000 -5,460 Descending Denver Center
11:44AM 38.6042 -109.8250 20° North 389 448 10,200 -3,720 Descending Denver Center
11:48AM 38.7500 -109.7500 North  Level FlightAware Approximate
11:55AM 38.7550 -109.7548 North  Level Estimated
11:56AM 38.7500 -109.7500 North  Level FlightAware Approximate
11:57AM 38.7550 -109.7548 North  Level Estimated